Time;durP1;ratioP1;P1;durP2;ratioP2;P2;SDS_P1;SDS_P2;PMS_P1;PMS_P2;Temp;Humidity;BMP_temperature;BMP_pressure;BME280_temperature;BME280_humidity;BME280_pressure;Samples;Min_cycle;Max_cycle;Signal;HPM_P1;HPM_P2
2022/10/01 00:00:20;;;;;;;25.43;10.87;;;;;;;;;;1944458;73;26230;-78
2022/10/01 00:02:49;;;;;;;28.17;11.00;;;;;;;;;;1943065;74;26296;-78
2022/10/01 00:05:22;;;;;;;23.57;10.83;;;;;;;;;;1906678;74;26220;-78
2022/10/01 00:08:02;;;;;;;22.10;10.47;;;;;;;;;;1942687;74;26318;-78
2022/10/01 00:10:31;;;;;;;21.87;10.97;;;;;;;;;;1942444;74;26659;-78
2022/10/01 00:13:00;;;;;;;26.47;11.23;;;;;;;;;;1942752;71;27145;-78
2022/10/01 00:15:30;;;;;;;26.73;11.27;;;;;;;;;;1942608;73;26235;-78
2022/10/01 00:18:00;;;;;;;24.90;11.43;;;;;;;;;;1908645;74;26322;-78
2022/10/01 00:20:30;;;;;;;21.00;10.90;;;;;;;;;;1942667;73;26543;-78
2022/10/01 00:23:00;;;;;;;20.93;10.47;;;;;;;;;;1908794;74;26232;-79
2022/10/01 00:25:30;;;;;;;21.53;10.97;;;;;;;;;;1878647;74;26369;-78
2022/10/01 00:28:00;;;;;;;24.00;10.43;;;;;;;;;;1942803;74;26225;-78
2022/10/01 00:30:31;;;;;;;20.83;9.80;;;;;;;;;;1942788;73;26231;-78
2022/10/01 00:33:01;;;;;;;25.00;11.20;;;;;;;;;;1915072;73;26219;-78
2022/10/01 00:35:32;;;;;;;24.63;9.80;;;;;;;;;;1874637;75;26260;-78
2022/10/01 00:38:00;;;;;;;28.73;10.33;;;;;;;;;;1942564;74;26230;-78
2022/10/01 00:40:30;;;;;;;24.97;9.70;;;;;;;;;;1902485;74;26698;-78
2022/10/01 00:43:00;;;;;;;18.00;9.73;;;;;;;;;;1934039;74;26397;-78
2022/10/01 00:45:30;;;;;;;20.50;10.13;;;;;;;;;;1933811;74;26321;-78
2022/10/01 00:48:01;;;;;;;23.77;9.33;;;;;;;;;;1903365;75;26387;-78
2022/10/01 00:50:31;;;;;;;25.23;11.17;;;;;;;;;;1914758;73;26334;-78
2022/10/01 00:53:03;;;;;;;27.30;10.40;;;;;;;;;;1941400;73;26705;-78
2022/10/01 00:55:44;;;;;;;20.47;9.23;;;;;;;;;;1944160;73;26390;-77
2022/10/01 00:58:14;;;;;;;23.47;10.33;;;;;;;;;;1948052;73;26428;-78
2022/10/01 01:00:43;;;;;;;21.93;9.60;;;;;;;;;;1918083;74;26336;-78
2022/10/01 01:03:14;;;;;;;25.13;9.83;;;;;;;;;;1942852;74;26275;-78
2022/10/01 01:05:45;;;;;;;21.80;10.10;;;;;;;;;;1909095;74;26245;-78
2022/10/01 01:08:14;;;;;;;28.23;10.50;;;;;;;;;;1942767;73;26242;-78
2022/10/01 01:10:44;;;;;;;20.97;9.43;;;;;;;;;;1942955;74;26244;-78
2022/10/01 01:13:15;;;;;;;25.57;10.83;;;;;;;;;;1942811;73;26198;-78
2022/10/01 01:15:47;;;;;;;23.57;9.73;;;;;;;;;;1942888;73;26235;-78
2022/10/01 01:18:19;;;;;;;24.87;9.77;;;;;;;;;;1915461;73;26302;-78
2022/10/01 01:20:53;;;;;;;23.80;9.40;;;;;;;;;;1946849;73;26781;-78
2022/10/01 01:23:48;;;;;;;26.43;9.97;;;;;;;;;;1946821;73;26235;-78
2022/10/01 01:26:37;;;;;;;23.20;9.07;;;;;;;;;;1919127;73;26703;-80
2022/10/01 01:29:09;;;;;;;26.43;9.13;;;;;;;;;;1946656;73;26389;-80
2022/10/01 01:31:40;;;;;;;22.67;10.00;;;;;;;;;;1946583;73;26235;-80
2022/10/01 01:34:11;;;;;;;21.50;9.83;;;;;;;;;;1942203;73;26298;-79
2022/10/01 01:36:42;;;;;;;23.30;10.67;;;;;;;;;;1947016;73;27319;-80
2022/10/01 01:39:13;;;;;;;20.47;9.47;;;;;;;;;;1942622;73;26217;-79
2022/10/01 01:41:48;;;;;;;20.77;9.50;;;;;;;;;;1908976;74;26299;-79
2022/10/01 01:44:17;;;;;;;23.23;9.00;;;;;;;;;;1942351;74;26297;-80
2022/10/01 01:46:48;;;;;;;19.30;9.33;;;;;;;;;;1946755;73;26301;-79
2022/10/01 01:49:19;;;;;;;18.27;9.00;;;;;;;;;;1942680;74;26226;-80
2022/10/01 01:51:51;;;;;;;23.20;9.47;;;;;;;;;;1909582;74;26228;-79
2022/10/01 01:54:22;;;;;;;21.23;9.10;;;;;;;;;;1948872;73;26443;-79
2022/10/01 01:56:52;;;;;;;21.70;9.47;;;;;;;;;;1943212;74;26313;-80
2022/10/01 01:59:22;;;;;;;19.43;9.33;;;;;;;;;;1915606;73;26247;-80
2022/10/01 02:01:53;;;;;;;24.07;9.03;;;;;;;;;;1881490;74;26252;-81
2022/10/01 02:04:23;;;;;;;20.57;3.87;;;;;;;;;;1942798;74;26505;-81
2022/10/01 02:06:56;;;;;;;19.03;3.90;;;;;;;;;;1908429;74;26220;-81
2022/10/01 02:09:26;;;;;;;17.73;3.90;;;;;;;;;;1942939;73;26312;-81
2022/10/01 02:11:58;;;;;;;19.27;4.33;;;;;;;;;;1946637;73;26239;-82
2022/10/01 02:14:29;;;;;;;19.43;4.23;;;;;;;;;;1942893;71;26259;-82
2022/10/01 02:17:00;;;;;;;16.03;3.63;;;;;;;;;;1908917;74;26232;-82
2022/10/01 02:19:33;;;;;;;17.60;4.23;;;;;;;;;;1908184;74;26228;-82
2022/10/01 02:22:03;;;;;;;19.50;3.90;;;;;;;;;;1942833;74;26869;-82
2022/10/01 02:24:37;;;;;;;15.23;3.70;;;;;;;;;;1946624;72;26704;-82
2022/10/01 02:27:08;;;;;;;17.87;3.70;;;;;;;;;;1942708;74;26235;-82
2022/10/01 02:29:38;;;;;;;14.47;3.73;;;;;;;;;;1909081;74;26692;-82
2022/10/01 02:32:11;;;;;;;17.77;3.60;;;;;;;;;;1942832;74;26244;-82
2022/10/01 02:34:40;;;;;;;16.93;3.93;;;;;;;;;;1915177;73;26312;-82
2022/10/01 02:37:11;;;;;;;15.23;3.47;;;;;;;;;;1942828;74;26239;-82
2022/10/01 02:39:41;;;;;;;14.80;4.43;;;;;;;;;;1908046;74;26321;-82
2022/10/01 02:42:11;;;;;;;15.80;3.63;;;;;;;;;;1908613;74;26685;-82
2022/10/01 02:44:42;;;;;;;15.40;3.50;;;;;;;;;;1942854;74;26227;-82
2022/10/01 02:47:12;;;;;;;17.03;3.57;;;;;;;;;;1882210;74;26228;-82
2022/10/01 02:49:41;;;;;;;13.83;3.53;;;;;;;;;;1943473;73;27296;-82
2022/10/01 02:52:14;;;;;;;18.47;4.77;;;;;;;;;;1949167;73;26314;-82
2022/10/01 02:54:45;;;;;;;15.67;3.63;;;;;;;;;;1948044;73;26300;-80
2022/10/01 02:57:26;;;;;;;16.40;3.83;;;;;;;;;;1830417;76;26768;-80
2022/10/01 02:59:56;;;;;;;18.13;3.93;;;;;;;;;;1880517;75;26635;-82
2022/10/01 03:02:28;;;;;;;14.37;3.60;;;;;;;;;;1907670;75;26257;-82
2022/10/01 03:04:57;;;;;;;19.07;3.63;;;;;;;;;;1942910;74;26224;-81
2022/10/01 03:07:27;;;;;;;17.23;3.83;;;;;;;;;;1875854;75;26703;-82
2022/10/01 03:09:55;;;;;;;21.10;4.13;;;;;;;;;;1881881;74;26168;-81
2022/10/01 03:12:24;;;;;;;16.20;3.87;;;;;;;;;;1936566;74;26753;-81
2022/10/01 03:14:53;;;;;;;18.53;3.53;;;;;;;;;;1908418;74;26192;-82
2022/10/01 03:17:22;;;;;;;19.80;4.03;;;;;;;;;;1942377;74;26227;-81
2022/10/01 03:19:51;;;;;;;18.17;3.87;;;;;;;;;;1908614;74;26798;-81
2022/10/01 03:22:22;;;;;;;22.40;4.17;;;;;;;;;;1942615;74;26239;-81
2022/10/01 03:24:53;;;;;;;21.47;4.20;;;;;;;;;;1942843;72;26308;-81
2022/10/01 03:27:23;;;;;;;22.97;4.53;;;;;;;;;;1943162;74;26233;-81
2022/10/01 03:29:53;;;;;;;20.67;4.23;;;;;;;;;;1942780;74;26515;-81
2022/10/01 03:32:22;;;;;;;24.80;4.77;;;;;;;;;;1943047;74;26285;-80
2022/10/01 03:34:51;;;;;;;20.17;4.73;;;;;;;;;;1942809;74;26219;-81
2022/10/01 03:37:20;;;;;;;21.60;4.63;;;;;;;;;;1942491;74;26275;-81
2022/10/01 03:39:49;;;;;;;22.07;4.13;;;;;;;;;;1936574;74;26216;-81
2022/10/01 03:42:20;;;;;;;25.60;4.30;;;;;;;;;;1908196;74;26387;-81
2022/10/01 03:44:49;;;;;;;20.67;4.60;;;;;;;;;;1943301;74;26344;-80
2022/10/01 03:47:18;;;;;;;15.70;4.00;;;;;;;;;;1943273;74;26219;-81
2022/10/01 03:49:48;;;;;;;20.33;4.57;;;;;;;;;;1943344;74;26696;-81
2022/10/01 03:52:19;;;;;;;23.83;5.07;;;;;;;;;;1937406;73;26232;-80
2022/10/01 03:54:49;;;;;;;16.93;4.00;;;;;;;;;;1943478;74;26247;-80
2022/10/01 03:57:19;;;;;;;25.00;5.43;;;;;;;;;;1903345;75;26258;-80
2022/10/01 03:59:49;;;;;;;17.07;3.97;;;;;;;;;;1914451;73;26244;-80
2022/10/01 04:02:21;;;;;;;21.57;4.10;;;;;;;;;;1824286;74;611684;-80
2022/10/01 04:04:51;;;;;;;22.27;4.53;;;;;;;;;;1822804;78;26277;-80
2022/10/01 04:07:20;;;;;;;23.23;4.60;;;;;;;;;;1792683;80;26327;-81
2022/10/01 04:09:51;;;;;;;19.87;4.93;;;;;;;;;;1791978;78;26280;-80
2022/10/01 04:12:19;;;;;;;20.20;3.97;;;;;;;;;;1758684;80;26917;-80
2022/10/01 04:14:49;;;;;;;22.87;5.00;;;;;;;;;;1792268;78;26289;-80
2022/10/01 04:17:19;;;;;;;20.43;4.53;;;;;;;;;;1793096;80;26347;-80
2022/10/01 04:19:49;;;;;;;24.10;4.80;;;;;;;;;;1822819;78;26280;-80
2022/10/01 04:22:19;;;;;;;22.20;4.30;;;;;;;;;;1803355;79;26924;-81
2022/10/01 04:24:49;;;;;;;18.93;4.43;;;;;;;;;;1775736;79;26314;-81
2022/10/01 04:27:18;;;;;;;19.47;3.63;;;;;;;;;;1803405;79;26865;-80
2022/10/01 04:29:48;;;;;;;18.23;4.13;;;;;;;;;;1803673;79;26370;-81
2022/10/01 04:32:21;;;;;;;21.70;4.10;;;;;;;;;;1775463;79;26281;-80
2022/10/01 04:34:52;;;;;;;18.37;4.13;;;;;;;;;;1803423;79;26277;-80
2022/10/01 04:37:21;;;;;;;20.87;4.30;;;;;;;;;;1803402;79;27551;-80
2022/10/01 04:39:51;;;;;;;21.40;4.33;;;;;;;;;;1803470;79;26313;-80
2022/10/01 04:42:20;;;;;;;13.17;3.67;;;;;;;;;;1776990;79;26382;-81
2022/10/01 04:44:53;;;;;;;17.13;3.77;;;;;;;;;;1776797;79;26371;-81
2022/10/01 04:47:24;;;;;;;20.23;4.23;;;;;;;;;;1776457;79;26713;-81
2022/10/01 04:49:53;;;;;;;18.90;3.93;;;;;;;;;;1804159;79;26285;-81
2022/10/01 04:52:24;;;;;;;22.80;4.37;;;;;;;;;;1776017;79;26277;-80
2022/10/01 04:54:52;;;;;;;18.37;3.70;;;;;;;;;;1803685;79;26274;-80
2022/10/01 04:57:24;;;;;;;15.17;3.50;;;;;;;;;;1803493;79;26266;-80
2022/10/01 04:59:56;;;;;;;18.13;4.20;;;;;;;;;;1803434;79;26234;-81
2022/10/01 05:02:24;;;;;;;19.10;4.23;;;;;;;;;;1803295;79;26294;-80
2022/10/01 05:04:54;;;;;;;23.47;4.37;;;;;;;;;;1803446;79;26398;-80
2022/10/01 05:07:25;;;;;;;16.57;3.90;;;;;;;;;;1803304;79;26278;-80
2022/10/01 05:09:53;;;;;;;16.87;4.13;;;;;;;;;;1803573;79;26355;-80
2022/10/01 05:12:24;;;;;;;14.70;3.33;;;;;;;;;;1753178;79;26871;-80
2022/10/01 05:14:53;;;;;;;25.17;4.40;;;;;;;;;;1803625;78;26275;-80
2022/10/01 05:17:26;;;;;;;17.07;4.27;;;;;;;;;;1803440;79;26330;-80
2022/10/01 05:19:57;;;;;;;15.17;3.23;;;;;;;;;;1803514;79;26273;-80
2022/10/01 05:22:27;;;;;;;16.60;3.60;;;;;;;;;;1803677;79;26285;-80
2022/10/01 05:24:58;;;;;;;13.93;4.07;;;;;;;;;;1803468;78;26376;-80
2022/10/01 05:27:28;;;;;;;18.27;4.23;;;;;;;;;;1803498;79;26777;-80
2022/10/01 05:30:00;;;;;;;22.90;4.73;;;;;;;;;;1803534;78;26278;-80
2022/10/01 05:32:30;;;;;;;18.87;3.37;;;;;;;;;;1775790;79;26277;-80
2022/10/01 05:35:00;;;;;;;15.23;3.87;;;;;;;;;;1776639;79;26289;-80
2022/10/01 05:37:29;;;;;;;18.10;3.40;;;;;;;;;;1775963;79;26333;-80
2022/10/01 05:40:09;;;;;;;13.63;3.10;;;;;;;;;;1775423;79;26277;-78
2022/10/01 05:42:38;;;;;;;15.33;3.27;;;;;;;;;;1804403;79;26266;-78
2022/10/01 05:45:10;;;;;;;11.80;2.77;;;;;;;;;;1804233;79;26348;-78
2022/10/01 05:47:43;;;;;;;16.63;3.43;;;;;;;;;;1804194;79;26269;-79
2022/10/01 05:50:13;;;;;;;13.37;2.97;;;;;;;;;;1776443;79;26739;-78
2022/10/01 05:52:52;;;;;;;11.97;2.90;;;;;;;;;;1775882;79;26285;-79
2022/10/01 05:55:23;;;;;;;14.00;3.23;;;;;;;;;;1803423;79;26270;-79
2022/10/01 05:57:57;;;;;;;12.80;2.70;;;;;;;;;;1803310;79;26774;-78
2022/10/01 06:00:27;;;;;;;14.13;3.10;;;;;;;;;;1803341;78;26293;-78
2022/10/01 06:02:58;;;;;;;12.20;2.77;;;;;;;;;;1753288;79;26257;-79
2022/10/01 06:05:29;;;;;;;14.20;2.60;;;;;;;;;;1803711;79;26791;-78
2022/10/01 06:07:59;;;;;;;12.97;3.27;;;;;;;;;;1775929;79;26444;-78
2022/10/01 06:10:29;;;;;;;17.53;3.17;;;;;;;;;;1803579;79;26297;-78
2022/10/01 06:13:00;;;;;;;13.17;3.87;;;;;;;;;;1803442;79;26872;-79
2022/10/01 06:15:33;;;;;;;15.33;2.50;;;;;;;;;;1803212;78;26424;-79
2022/10/01 06:18:03;;;;;;;12.70;3.20;;;;;;;;;;1803364;79;26440;-79
2022/10/01 06:20:32;;;;;;;16.53;3.17;;;;;;;;;;1803245;79;26437;-79
2022/10/01 06:23:04;;;;;;;12.53;2.73;;;;;;;;;;1775769;79;26305;-79
2022/10/01 06:25:37;;;;;;;13.87;3.00;;;;;;;;;;1803099;78;26399;-79
2022/10/01 06:28:10;;;;;;;14.97;3.33;;;;;;;;;;1803635;79;26278;-79
2022/10/01 06:30:40;;;;;;;13.67;2.87;;;;;;;;;;1803219;78;26372;-79
2022/10/01 06:33:10;;;;;;;10.70;2.73;;;;;;;;;;1776513;79;26297;-79
2022/10/01 06:35:42;;;;;;;16.60;3.33;;;;;;;;;;1803381;79;26270;-79
2022/10/01 06:38:12;;;;;;;14.67;3.10;;;;;;;;;;1803963;79;26328;-79
2022/10/01 06:40:43;;;;;;;13.83;3.47;;;;;;;;;;1803903;79;26828;-79
2022/10/01 06:43:12;;;;;;;12.77;3.27;;;;;;;;;;1776645;79;26735;-79
2022/10/01 06:45:41;;;;;;;10.73;2.80;;;;;;;;;;1804634;79;26563;-79
2022/10/01 06:48:12;;;;;;;17.17;3.50;;;;;;;;;;1804238;79;26266;-78
2022/10/01 06:50:43;;;;;;;11.97;3.60;;;;;;;;;;1803606;79;27468;-80
2022/10/01 06:53:16;;;;;;;16.43;3.17;;;;;;;;;;1822665;78;26797;-79
2022/10/01 06:55:45;;;;;;;11.67;3.10;;;;;;;;;;1787174;80;26348;-81
2022/10/01 06:58:16;;;;;;;14.37;3.17;;;;;;;;;;1822809;78;26339;-79
2022/10/01 07:00:45;;;;;;;11.30;3.03;;;;;;;;;;1793095;78;26294;-79
2022/10/01 07:03:20;;;;;;;13.83;3.47;;;;;;;;;;1792678;78;26648;-84
2022/10/01 07:05:51;;;;;;;13.17;3.23;;;;;;;;;;1793432;80;26253;-81
2022/10/01 07:08:21;;;;;;;17.93;3.57;;;;;;;;;;1823981;78;26938;-83
2022/10/01 07:10:51;;;;;;;10.53;3.30;;;;;;;;;;1794024;80;26282;-82
2022/10/01 07:13:23;;;;;;;12.67;3.30;;;;;;;;;;1824794;76;26282;-85
2022/10/01 07:15:55;;;;;;;16.20;3.40;;;;;;;;;;1807565;78;26343;-84
2022/10/01 07:18:26;;;;;;;12.87;2.93;;;;;;;;;;1805908;79;26250;-85
2022/10/01 07:20:58;;;;;;;14.53;3.23;;;;;;;;;;1804702;79;26359;-87
2022/10/01 07:23:27;;;;;;;12.07;3.47;;;;;;;;;;1804676;79;26361;-84
2022/10/01 07:25:56;;;;;;;10.47;2.77;;;;;;;;;;1777072;79;24205;-89
2022/10/01 07:28:27;;;;;;;14.50;3.73;;;;;;;;;;1807732;79;26773;-84
2022/10/01 07:31:01;;;;;;;12.63;3.37;;;;;;;;;;1807821;78;26260;-84
2022/10/01 07:33:31;;;;;;;12.67;3.50;;;;;;;;;;1778417;79;24694;-85
2022/10/01 07:36:03;;;;;;;13.47;3.20;;;;;;;;;;1804440;79;24241;-87
2022/10/01 07:38:35;;;;;;;12.57;3.30;;;;;;;;;;1804152;78;24269;-85
2022/10/01 07:41:06;;;;;;;12.87;4.60;;;;;;;;;;1804092;79;24225;-87
2022/10/01 07:43:36;;;;;;;13.17;5.00;;;;;;;;;;1804096;79;26280;-83
2022/10/01 07:46:05;;;;;;;11.97;5.80;;;;;;;;;;1803894;79;24359;-83
2022/10/01 07:48:35;;;;;;;15.33;6.80;;;;;;;;;;1803677;79;24290;-87
2022/10/01 07:51:05;;;;;;;15.50;7.40;;;;;;;;;;1775672;79;26264;-86
2022/10/01 07:53:35;;;;;;;15.63;7.10;;;;;;;;;;1803933;79;24295;-88
2022/10/01 07:56:04;;;;;;;13.17;7.30;;;;;;;;;;1776079;79;26284;-88
2022/10/01 07:58:35;;;;;;;11.53;6.80;;;;;;;;;;1776482;79;24216;-87
2022/10/01 08:01:05;;;;;;;12.37;7.27;;;;;;;;;;1804049;78;24213;-85
2022/10/01 08:03:34;;;;;;;13.20;7.37;;;;;;;;;;1805232;79;24217;-84
2022/10/01 08:06:05;;;;;;;14.83;7.63;;;;;;;;;;1776719;79;24263;-86
2022/10/01 08:08:43;;;;;;;15.57;7.83;;;;;;;;;;1775839;79;29803;-85
2022/10/01 08:11:13;;;;;;;12.77;8.07;;;;;;;;;;1804496;79;24286;-83
2022/10/01 08:13:42;;;;;;;9.63;7.87;;;;;;;;;;1776415;79;24859;-85
2022/10/01 08:16:11;;;;;;;16.43;8.27;;;;;;;;;;1776303;79;26426;-85
2022/10/01 08:18:40;;;;;;;11.80;8.73;;;;;;;;;;1804476;79;24209;-85
2022/10/01 08:21:09;;;;;;;14.27;9.57;;;;;;;;;;1804422;79;24220;-85
2022/10/01 08:23:38;;;;;;;13.77;8.97;;;;;;;;;;1776296;79;24241;-82
2022/10/01 08:26:10;;;;;;;16.27;9.00;;;;;;;;;;1823010;77;24858;-82
2022/10/01 08:28:41;;;;;;;15.23;8.97;;;;;;;;;;1719135;80;24188;-83
2022/10/01 08:31:12;;;;;;;12.43;8.80;;;;;;;;;;1824304;78;24235;-87
2022/10/01 08:33:45;;;;;;;12.10;9.20;;;;;;;;;;1795396;80;24192;-81
2022/10/01 08:36:15;;;;;;;12.67;9.40;;;;;;;;;;1825252;78;24196;-86
2022/10/01 08:38:45;;;;;;;15.60;10.27;;;;;;;;;;1779035;79;24228;-86
2022/10/01 08:41:22;;;;;;;12.27;9.37;;;;;;;;;;1806841;79;24271;-85
2022/10/01 08:43:53;;;;;;;13.63;10.20;;;;;;;;;;1807637;79;24282;-87
2022/10/01 08:46:24;;;;;;;17.12;11.40;;;;;;;;;;1806342;79;24201;-87
2022/10/01 08:48:54;;;;;;;11.90;10.70;;;;;;;;;;1777956;79;24208;-85
2022/10/01 08:51:25;;;;;;;12.80;10.85;;;;;;;;;;1805685;79;24297;-85
2022/10/01 08:53:56;;;;;;;13.55;10.63;;;;;;;;;;1778032;79;24611;-87
2022/10/01 08:56:26;;;;;;;12.18;10.50;;;;;;;;;;1777256;79;24815;-82
2022/10/01 08:58:59;;;;;;;11.57;9.88;;;;;;;;;;1754096;79;24298;-84
2022/10/01 09:01:29;;;;;;;10.93;9.63;;;;;;;;;;1776632;79;25881;-84
2022/10/01 09:03:59;;;;;;;10.93;9.75;;;;;;;;;;1805235;79;25325;-83
2022/10/01 09:06:32;;;;;;;15.60;10.35;;;;;;;;;;1754828;79;24228;-84
2022/10/01 09:09:20;;;;;;;14.20;11.60;;;;;;;;;;1805002;79;24563;-84
2022/10/01 09:11:52;;;;;;;14.87;11.70;;;;;;;;;;1803296;79;24236;-84
2022/10/01 09:14:30;;;;;;;14.00;11.95;;;;;;;;;;1805335;79;24229;-84
2022/10/01 09:17:05;;;;;;;14.05;12.30;;;;;;;;;;1779132;79;24755;-82
2022/10/01 09:19:40;;;;;;;13.40;11.97;;;;;;;;;;1808201;78;24165;-84
2022/10/01 09:22:12;;;;;;;13.45;11.97;;;;;;;;;;1808850;78;24275;-84
2022/10/01 09:24:55;;;;;;;14.25;12.65;;;;;;;;;;1808204;78;24245;-84
2022/10/01 09:27:25;;;;;;;13.93;11.73;;;;;;;;;;1780622;79;24208;-84
2022/10/01 09:29:57;;;;;;;15.25;12.23;;;;;;;;;;1808610;79;24249;-84
2022/10/01 09:32:27;;;;;;;14.60;11.88;;;;;;;;;;1756996;79;24166;-83
2022/10/01 09:34:59;;;;;;;14.15;12.45;;;;;;;;;;1808326;79;24704;-87
2022/10/01 09:38:07;;;;;;;14.28;12.88;;;;;;;;;;1782492;78;24189;-83
2022/10/01 09:40:41;;;;;;;15.58;11.12;;;;;;;;;;1809616;78;24433;-83
2022/10/01 09:43:10;;;;;;;14.77;11.30;;;;;;;;;;1807558;78;24518;-76
2022/10/01 09:45:39;;;;;;;12.80;11.43;;;;;;;;;;1803547;79;24228;-75
2022/10/01 09:48:16;;;;;;;14.03;11.50;;;;;;;;;;1775888;79;24225;-76
2022/10/01 09:50:49;;;;;;;16.17;11.53;;;;;;;;;;1804310;79;24233;-78
2022/10/01 09:53:19;;;;;;;12.98;11.80;;;;;;;;;;1805131;79;24299;-78
2022/10/01 09:55:50;;;;;;;13.43;11.57;;;;;;;;;;1804249;79;24229;-80
2022/10/01 09:58:22;;;;;;;15.83;11.57;;;;;;;;;;1753329;79;24698;-78
2022/10/01 10:00:52;;;;;;;12.40;11.10;;;;;;;;;;1804558;79;24212;-78
2022/10/01 10:03:27;;;;;;;13.07;10.73;;;;;;;;;;1778309;79;24271;-79
2022/10/01 10:05:58;;;;;;;13.93;10.50;;;;;;;;;;1804314;79;24706;-79
2022/10/01 10:08:31;;;;;;;15.53;11.57;;;;;;;;;;1754229;78;24217;-78
2022/10/01 10:11:01;;;;;;;13.70;11.27;;;;;;;;;;1804027;79;26922;-79
2022/10/01 10:13:33;;;;;;;14.73;12.27;;;;;;;;;;1776553;79;24199;-78
2022/10/01 10:16:06;;;;;;;12.67;11.37;;;;;;;;;;1777742;79;24785;-82
2022/10/01 10:18:37;;;;;;;16.67;12.00;;;;;;;;;;1805113;78;24225;-77
2022/10/01 10:21:09;;;;;;;17.20;11.93;;;;;;;;;;1755191;79;24232;-80
2022/10/01 10:23:42;;;;;;;13.67;10.63;;;;;;;;;;1804401;79;24221;-80
2022/10/01 10:26:14;;;;;;;15.00;10.97;;;;;;;;;;1804039;78;24533;-81
2022/10/01 10:28:44;;;;;;;14.27;11.33;;;;;;;;;;1805533;79;24813;-80
2022/10/01 10:31:15;;;;;;;14.93;10.67;;;;;;;;;;1778546;79;24226;-79
2022/10/01 10:33:52;;;;;;;17.60;11.20;;;;;;;;;;1808583;79;24299;-79
2022/10/01 10:36:23;;;;;;;15.57;10.67;;;;;;;;;;1780014;79;26321;-79
2022/10/01 10:38:54;;;;;;;12.00;10.47;;;;;;;;;;1780052;79;24213;-80
2022/10/01 10:41:26;;;;;;;14.37;11.27;;;;;;;;;;1825271;78;24309;-80
2022/10/01 10:43:57;;;;;;;14.65;11.20;;;;;;;;;;1805066;79;24190;-80
2022/10/01 10:46:30;;;;;;;16.53;10.50;;;;;;;;;;1804405;79;24290;-83
2022/10/01 10:49:04;;;;;;;14.18;10.20;;;;;;;;;;1776029;79;24456;-80
2022/10/01 10:51:52;;;;;;;15.00;10.18;;;;;;;;;;1776492;79;24294;-80
2022/10/01 10:54:39;;;;;;;14.05;11.50;;;;;;;;;;1803970;79;24216;-80
2022/10/01 10:57:15;;;;;;;18.30;11.75;;;;;;;;;;1774514;79;24300;-81
2022/10/01 10:59:47;;;;;;;13.15;10.53;;;;;;;;;;1776580;79;24220;-81
2022/10/01 11:02:20;;;;;;;13.40;10.75;;;;;;;;;;1802886;79;24228;-80
2022/10/01 11:04:49;;;;;;;13.93;11.05;;;;;;;;;;1804161;79;24270;-80
2022/10/01 11:07:20;;;;;;;11.88;10.60;;;;;;;;;;1803979;79;24306;-80
2022/10/01 11:09:57;;;;;;;15.32;10.70;;;;;;;;;;1804237;79;24298;-80
2022/10/01 11:12:30;;;;;;;13.28;10.60;;;;;;;;;;1776848;79;24249;-80
2022/10/01 11:15:23;;;;;;;15.53;10.98;;;;;;;;;;1753289;79;24314;-80
2022/10/01 11:18:08;;;;;;;16.12;10.85;;;;;;;;;;1800219;76;24225;-80
2022/10/01 11:20:46;;;;;;;12.73;10.32;;;;;;;;;;1787584;80;24304;-80
2022/10/01 11:23:32;;;;;;;11.38;9.40;;;;;;;;;;1826132;78;24712;-81
2022/10/01 11:26:05;;;;;;;11.53;9.95;;;;;;;;;;1822994;77;24651;-81
2022/10/01 11:28:37;;;;;;;11.40;9.88;;;;;;;;;;1776027;79;24286;-81
2022/10/01 11:31:08;;;;;;;12.45;10.72;;;;;;;;;;1806999;78;24217;-80
2022/10/01 11:33:43;;;;;;;11.63;10.32;;;;;;;;;;1807378;78;24243;-80
2022/10/01 11:36:13;;;;;;;11.30;9.48;;;;;;;;;;1805790;79;24229;-80
2022/10/01 11:38:44;;;;;;;12.47;9.98;;;;;;;;;;1803722;79;24756;-81
2022/10/01 11:41:32;;;;;;;11.18;9.98;;;;;;;;;;1775664;79;24779;-81
2022/10/01 11:44:02;;;;;;;14.30;10.68;;;;;;;;;;1801049;78;24310;-80
2022/10/01 11:46:39;;;;;;;13.85;10.20;;;;;;;;;;1803279;79;24753;-81
2022/10/01 11:49:19;;;;;;;12.35;10.03;;;;;;;;;;1803085;79;24283;-81
2022/10/01 11:51:50;;;;;;;11.43;10.20;;;;;;;;;;1775346;79;24225;-81
2022/10/01 11:54:21;;;;;;;12.43;11.08;;;;;;;;;;1775788;79;24886;-81
2022/10/01 11:59:39;;;;;;;11.50;10.35;;;;;;;;;;1803569;79;24520;-81
2022/10/01 12:02:14;;;;;;;14.00;10.93;;;;;;;;;;1803395;79;24910;-81
2022/10/01 12:04:44;;;;;;;13.68;10.03;;;;;;;;;;1803449;79;24232;-81
2022/10/01 12:07:15;;;;;;;13.10;10.03;;;;;;;;;;1803657;79;24295;-81
2022/10/01 12:09:47;;;;;;;12.28;10.03;;;;;;;;;;1803482;79;24294;-81
2022/10/01 12:12:19;;;;;;;12.60;10.60;;;;;;;;;;1803817;79;24233;-81
2022/10/01 12:14:50;;;;;;;11.03;9.90;;;;;;;;;;1752326;79;24287;-80
2022/10/01 12:17:21;;;;;;;13.15;10.38;;;;;;;;;;1803291;79;24229;-80
2022/10/01 12:19:52;;;;;;;15.80;10.32;;;;;;;;;;1752459;79;24228;-80
2022/10/01 12:22:26;;;;;;;13.72;10.43;;;;;;;;;;1803538;79;24240;-80
2022/10/01 12:24:54;;;;;;;12.13;10.18;;;;;;;;;;1804110;78;24197;-80
2022/10/01 12:27:43;;;;;;;11.73;10.53;;;;;;;;;;1825271;77;24448;-79
2022/10/01 12:30:13;;;;;;;11.83;10.60;;;;;;;;;;1808221;78;24322;-80
2022/10/01 12:32:46;;;;;;;12.10;10.55;;;;;;;;;;1778974;79;24645;-79
2022/10/01 12:35:24;;;;;;;13.15;9.98;;;;;;;;;;1776122;79;24791;-81
2022/10/01 12:37:57;;;;;;;13.03;10.05;;;;;;;;;;1803655;79;24213;-81
2022/10/01 12:40:29;;;;;;;12.03;9.90;;;;;;;;;;1802853;79;24245;-81
2022/10/01 12:43:05;;;;;;;11.40;10.23;;;;;;;;;;1803727;79;24290;-82
2022/10/01 12:45:38;;;;;;;13.10;10.23;;;;;;;;;;1775959;79;24307;-81
2022/10/01 12:48:09;;;;;;;10.10;9.10;;;;;;;;;;1774960;79;25431;-80
2022/10/01 12:50:42;;;;;;;11.20;8.98;;;;;;;;;;1792772;80;24270;-80
2022/10/01 12:53:21;;;;;;;13.68;9.30;;;;;;;;;;1792397;80;24291;-81
2022/10/01 12:55:56;;;;;;;9.88;8.88;;;;;;;;;;1822906;78;24212;-81
2022/10/01 12:58:30;;;;;;;10.58;8.68;;;;;;;;;;1751838;79;24307;-82
2022/10/01 13:01:00;;;;;;;10.28;8.70;;;;;;;;;;1803255;79;24701;-82
2022/10/01 13:03:36;;;;;;;9.83;8.90;;;;;;;;;;1774998;79;24257;-81
2022/10/01 13:06:08;;;;;;;10.70;9.70;;;;;;;;;;1803561;79;25251;-82
2022/10/01 13:08:41;;;;;;;10.32;9.43;;;;;;;;;;1803130;79;24197;-82
2022/10/01 13:11:13;;;;;;;10.82;9.90;;;;;;;;;;1775400;79;25847;-81
2022/10/01 13:13:45;;;;;;;10.40;9.30;;;;;;;;;;1752497;79;25950;-82
2022/10/01 13:16:16;;;;;;;9.38;8.50;;;;;;;;;;1776339;79;25232;-82
2022/10/01 13:18:49;;;;;;;8.40;7.55;;;;;;;;;;1803548;78;24702;-81
2022/10/01 13:21:21;;;;;;;9.83;7.62;;;;;;;;;;1804024;79;24847;-83
2022/10/01 13:23:53;;;;;;;10.35;8.00;;;;;;;;;;1805259;79;25259;-82
2022/10/01 13:26:24;;;;;;;9.13;8.10;;;;;;;;;;1807385;78;24216;-82
2022/10/01 13:29:14;;;;;;;10.03;8.10;;;;;;;;;;1781369;79;24221;-81
2022/10/01 13:31:54;;;;;;;11.13;8.00;;;;;;;;;;1802040;79;24667;-81
2022/10/01 13:34:25;;;;;;;13.03;8.23;;;;;;;;;;1775737;79;24293;-81
2022/10/01 13:36:54;;;;;;;10.33;7.73;;;;;;;;;;1803797;79;24233;-81
2022/10/01 13:39:24;;;;;;;9.63;8.20;;;;;;;;;;1775313;79;24228;-81
2022/10/01 13:41:55;;;;;;;12.57;8.97;;;;;;;;;;1803547;79;24582;-82
2022/10/01 13:44:26;;;;;;;10.63;9.17;;;;;;;;;;1803492;79;24314;-82
2022/10/01 13:46:57;;;;;;;10.73;9.23;;;;;;;;;;1803408;78;24650;-81
2022/10/01 13:49:27;;;;;;;13.43;8.73;;;;;;;;;;1775223;79;24225;-82
2022/10/01 13:51:57;;;;;;;13.30;8.57;;;;;;;;;;1803527;79;24299;-81
2022/10/01 13:54:27;;;;;;;10.40;8.30;;;;;;;;;;1775344;79;24217;-81
2022/10/01 13:56:59;;;;;;;13.83;8.33;;;;;;;;;;1803639;79;24166;-81
2022/10/01 13:59:32;;;;;;;12.70;8.60;;;;;;;;;;1802302;79;24296;-81
2022/10/01 14:02:02;;;;;;;11.37;7.77;;;;;;;;;;1775637;79;24274;-81
2022/10/01 14:04:37;;;;;;;9.57;8.53;;;;;;;;;;1803358;79;24256;-81
2022/10/01 14:07:15;;;;;;;13.57;8.27;;;;;;;;;;1803297;79;24306;-81
2022/10/01 14:09:45;;;;;;;11.57;8.90;;;;;;;;;;1803445;79;24396;-78
2022/10/01 14:17:55;;;;;;;11.50;8.97;;;;;;;;;;1803540;78;24162;-80
2022/10/01 14:20:26;;;;;;;11.07;7.53;;;;;;;;;;1804133;78;24244;-80
2022/10/01 14:23:00;;;;;;;12.73;8.17;;;;;;;;;;1778641;79;24204;-79
2022/10/01 14:25:39;;;;;;;10.90;7.83;;;;;;;;;;1779367;79;24350;-79
2022/10/01 14:28:20;;;;;;;11.30;8.17;;;;;;;;;;1804976;79;24291;-79
2022/10/01 14:30:51;;;;;;;10.77;7.57;;;;;;;;;;1803454;79;24324;-78
2022/10/01 14:33:27;;;;;;;12.13;8.20;;;;;;;;;;1803311;79;24319;-78
2022/10/01 14:35:57;;;;;;;9.40;7.00;;;;;;;;;;1803238;79;24186;-79
2022/10/01 14:38:27;;;;;;;11.20;7.13;;;;;;;;;;1775841;79;26382;-79
2022/10/01 14:40:57;;;;;;;12.57;7.37;;;;;;;;;;1776674;79;24303;-79
2022/10/01 14:43:27;;;;;;;8.27;7.40;;;;;;;;;;1803340;79;24317;-80
2022/10/01 14:45:58;;;;;;;9.77;7.30;;;;;;;;;;1822594;78;24298;-79
2022/10/01 14:48:30;;;;;;;9.27;7.57;;;;;;;;;;1774971;79;24301;-80
2022/10/01 14:51:01;;;;;;;9.13;7.80;;;;;;;;;;1803446;79;24228;-80
2022/10/01 14:53:32;;;;;;;8.63;7.00;;;;;;;;;;1803544;79;24240;-79
2022/10/01 14:56:02;;;;;;;9.20;7.70;;;;;;;;;;1803224;79;24233;-78
2022/10/01 14:58:32;;;;;;;9.53;7.12;;;;;;;;;;1803354;79;24237;-80
2022/10/01 15:01:02;;;;;;;12.18;8.13;;;;;;;;;;1803333;79;24283;-82